createdAt,value
2023-01-22T00:00:58.006Z,191.05
2023-01-22T00:03:24.828Z,189.02
2023-01-22T00:05:51.687Z,181.30
2023-01-22T00:08:18.714Z,175.43
2023-01-22T00:10:45.472Z,171.10
2023-01-22T00:13:12.179Z,167.27
2023-01-22T00:15:39.007Z,166.15
2023-01-22T00:18:05.975Z,164.27
2023-01-22T00:20:32.812Z,156.73
2023-01-22T00:22:59.590Z,151.73
2023-01-22T00:25:26.233Z,149.32
2023-01-22T00:27:53.061Z,142.77
2023-01-22T00:30:20.213Z,143.82
2023-01-22T00:32:47.677Z,141.23
2023-01-22T00:35:14.531Z,137.55
2023-01-22T00:37:41.311Z,136.73
2023-01-22T00:40:08.210Z,133.73
2023-01-22T00:42:34.874Z,130.45
2023-01-22T00:45:01.753Z,126.10
2023-01-22T00:47:29.636Z,122.88
2023-01-22T00:49:56.307Z,122.70
2023-01-22T00:52:22.754Z,118.30
2023-01-22T00:54:49.242Z,114.20
2023-01-22T00:57:16.194Z,110.38
2023-01-22T00:59:42.611Z,112.97
2023-01-22T01:02:09.177Z,110.55
2023-01-22T01:04:36.122Z,107.47
2023-01-22T01:07:02.817Z,103.47
2023-01-22T01:09:29.290Z,99.22
2023-01-22T01:11:56.193Z,100.78
2023-01-22T01:14:23.479Z,96.68
2023-01-22T01:16:50.365Z,93.35
2023-01-22T01:19:16.810Z,92.60
2023-01-22T01:21:43.987Z,91.40
2023-01-22T01:24:10.686Z,88.22
2023-01-22T01:26:37.547Z,86.40
2023-01-22T01:29:04.007Z,83.43
2023-01-22T01:31:30.425Z,82.50
2023-01-22T01:33:57.319Z,80.55
2023-01-22T01:36:45.876Z,78.75
2023-01-22T01:39:10.622Z,76.13
2023-01-22T01:41:37.610Z,74.55
2023-01-22T01:44:04.570Z,72.50
2023-01-22T01:46:31.145Z,74.47
2023-01-22T01:48:58.199Z,69.90
2023-01-22T01:51:24.629Z,69.18
2023-01-22T01:53:51.168Z,65.47
2023-01-22T01:56:17.880Z,64.75
2023-01-22T01:58:44.419Z,61.92
2023-01-22T02:01:11.123Z,61.85
2023-01-22T02:03:38.538Z,59.35
2023-01-22T02:06:06.489Z,58.85
2023-01-22T02:08:34.599Z,59.67
2023-01-22T02:11:01.511Z,55.03
2023-01-22T02:13:29.984Z,54.92
2023-01-22T02:15:56.673Z,56.08
2023-01-22T02:18:23.458Z,53.67
2023-01-22T02:20:50.384Z,52.42
2023-01-22T02:23:17.360Z,50.88
2023-01-22T02:25:43.885Z,50.58
2023-01-22T02:28:10.429Z,48.47
2023-01-22T02:30:37.085Z,49.20
2023-01-22T02:33:04.082Z,45.25
2023-01-22T02:35:30.500Z,46.85
2023-01-22T02:37:56.957Z,44.13
2023-01-22T02:40:23.364Z,44.05
2023-01-22T02:42:49.992Z,42.65
2023-01-22T02:45:16.419Z,42.25
2023-01-22T02:47:42.845Z,39.63
2023-01-22T02:50:09.657Z,39.92
2023-01-22T02:52:36.112Z,40.30
2023-01-22T02:55:02.761Z,39.08
2023-01-22T02:57:29.200Z,37.22
2023-01-22T02:59:55.888Z,38.35
2023-01-22T03:02:22.383Z,35.90
2023-01-22T03:04:49.372Z,35.72
2023-01-22T03:07:16.222Z,34.83
2023-01-22T03:09:43.081Z,33.88
2023-01-22T03:12:09.592Z,33.67
2023-01-22T03:14:37.900Z,33.00
2023-01-22T03:17:04.772Z,32.95
2023-01-22T03:19:32.233Z,31.52
2023-01-22T03:21:58.840Z,30.80
2023-01-22T03:24:26.140Z,31.55
2023-01-22T03:26:52.894Z,30.35
2023-01-22T03:29:19.714Z,29.42
2023-01-22T03:31:46.815Z,28.45
2023-01-22T03:34:13.671Z,28.40
2023-01-22T03:36:40.294Z,27.33
2023-01-22T03:39:07.197Z,27.75
2023-01-22T03:41:33.570Z,26.67
2023-01-22T03:43:59.983Z,27.48
2023-01-22T03:46:26.743Z,25.35
2023-01-22T03:48:53.133Z,25.40
2023-01-22T03:51:19.683Z,25.27
2023-01-22T03:53:46.688Z,24.30
2023-01-22T03:56:13.588Z,24.25
2023-01-22T03:58:40.026Z,23.70
2023-01-22T04:01:06.623Z,23.55
2023-01-22T04:03:34.665Z,22.38
2023-01-22T04:06:01.463Z,22.48
2023-01-22T04:08:29.319Z,21.92
2023-01-22T04:10:56.769Z,20.92
2023-01-22T04:13:24.607Z,20.40
2023-01-22T04:15:51.901Z,20.55
2023-01-22T04:18:19.463Z,20.60
2023-01-22T04:20:46.025Z,20.70
2023-01-22T04:23:13.575Z,19.55
2023-01-22T04:25:41.788Z,20.38
2023-01-22T04:28:08.984Z,19.05
2023-01-22T04:30:35.748Z,19.08
2023-01-22T04:33:02.888Z,17.30
2023-01-22T04:35:29.769Z,18.48
2023-01-22T04:37:56.785Z,18.17
2023-01-22T04:40:23.535Z,17.48
2023-01-22T04:42:50.037Z,16.20
2023-01-22T04:45:16.560Z,16.67
2023-01-22T04:47:43.194Z,16.38
2023-01-22T04:50:09.768Z,16.38
2023-01-22T04:52:36.639Z,16.15
2023-01-22T04:55:03.093Z,15.63
2023-01-22T04:57:29.813Z,15.02
2023-01-22T04:59:56.310Z,14.70
2023-01-22T05:02:22.734Z,15.13
2023-01-22T05:04:49.205Z,14.05
2023-01-22T05:07:15.756Z,14.38
2023-01-22T05:09:42.409Z,14.00
2023-01-22T05:12:09.036Z,14.13
2023-01-22T05:14:35.440Z,13.45
2023-01-22T05:17:02.051Z,12.73
2023-01-22T05:19:28.526Z,13.32
2023-01-22T05:21:55.125Z,13.27
2023-01-22T05:24:21.579Z,12.93
2023-01-22T05:26:48.183Z,12.50
2023-01-22T05:29:15.190Z,13.18
2023-01-22T05:31:41.920Z,12.45
2023-01-22T05:34:08.549Z,12.48
2023-01-22T05:36:35.998Z,11.98
2023-01-22T05:39:02.786Z,11.65
2023-01-22T05:41:30.061Z,11.45
2023-01-22T05:43:56.622Z,11.73
2023-01-22T05:46:23.368Z,11.45
2023-01-22T05:48:50.341Z,11.32
2023-01-22T05:51:17.075Z,10.65
2023-01-22T05:53:43.785Z,11.50
2023-01-22T05:56:10.411Z,10.90
2023-01-22T05:58:37.290Z,10.65
2023-01-22T06:01:03.803Z,10.57
2023-01-22T06:03:30.367Z,10.25
2023-01-22T06:05:57.105Z,10.40
2023-01-22T06:08:23.623Z,10.35
2023-01-22T06:10:50.594Z,9.93
2023-01-22T06:13:17.435Z,9.00
2023-01-22T06:15:44.196Z,9.90
2023-01-22T06:18:10.846Z,9.45
2023-01-22T06:20:37.380Z,9.63
2023-01-22T06:23:04.068Z,9.52
2023-01-22T06:25:30.930Z,9.75
2023-01-22T06:27:57.811Z,9.15
2023-01-22T06:30:24.173Z,9.88
2023-01-22T06:32:50.676Z,9.25
2023-01-22T06:35:17.616Z,8.75
2023-01-22T06:37:44.525Z,8.32
2023-01-22T06:40:11.040Z,9.35
2023-01-22T06:42:37.960Z,8.25
2023-01-22T06:45:04.683Z,8.85
2023-01-22T06:47:31.197Z,8.75
2023-01-22T06:49:57.922Z,8.25
2023-01-22T06:52:24.913Z,8.35
2023-01-22T06:54:51.940Z,8.27
2023-01-22T06:57:18.320Z,8.30
2023-01-22T06:59:44.848Z,7.95
2023-01-22T07:02:11.255Z,7.60
2023-01-22T07:04:37.672Z,7.97
2023-01-22T07:07:04.416Z,8.13
2023-01-22T07:09:31.000Z,8.57
2023-01-22T07:11:57.471Z,7.57
2023-01-22T07:14:36.435Z,7.40
2023-01-22T07:17:03.407Z,7.47
2023-01-22T07:19:29.935Z,7.68
2023-01-22T07:21:56.279Z,7.47
2023-01-22T07:24:22.546Z,6.75
2023-01-22T07:26:48.913Z,7.38
2023-01-22T07:29:15.329Z,7.50
2023-01-22T07:31:41.905Z,7.57
2023-01-22T07:34:08.430Z,8.18
2023-01-22T07:36:35.264Z,7.50
2023-01-22T07:39:01.622Z,7.88
2023-01-22T07:41:28.126Z,7.88
2023-01-22T07:43:55.458Z,9.00
2023-01-22T07:46:22.179Z,7.70
2023-01-22T07:48:49.002Z,7.70
2023-01-22T07:51:15.615Z,7.30
2023-01-22T07:53:42.758Z,7.90
2023-01-22T07:56:09.184Z,6.95
2023-01-22T07:58:36.004Z,7.68
2023-01-22T08:01:02.522Z,7.45
2023-01-22T08:03:29.250Z,7.05
2023-01-22T08:05:56.075Z,7.20
2023-01-22T08:08:22.846Z,7.63
2023-01-22T08:10:49.790Z,7.18
2023-01-22T08:13:16.193Z,7.63
2023-01-22T08:15:42.754Z,6.55
2023-01-22T08:18:09.489Z,6.70
2023-01-22T08:20:36.331Z,6.85
2023-01-22T08:23:02.915Z,7.15
2023-01-22T08:25:29.304Z,6.38
2023-01-22T08:27:55.822Z,7.03
2023-01-22T08:30:22.469Z,7.00
2023-01-22T08:32:48.883Z,6.93
2023-01-22T08:35:15.497Z,6.63
2023-01-22T08:37:41.924Z,7.20
2023-01-22T08:40:08.913Z,6.80
2023-01-22T08:42:35.418Z,7.10
2023-01-22T08:45:01.982Z,7.22
2023-01-22T08:47:29.011Z,6.88
2023-01-22T08:49:55.395Z,6.65
2023-01-22T08:52:21.884Z,6.50
2023-01-22T08:54:48.302Z,6.13
2023-01-22T08:57:14.711Z,6.72
2023-01-22T08:59:43.061Z,6.13
2023-01-22T09:02:11.748Z,6.75
2023-01-22T09:04:40.356Z,6.00
2023-01-22T09:07:06.797Z,6.22
2023-01-22T09:09:33.179Z,7.00
2023-01-22T09:11:59.610Z,6.30
2023-01-22T09:14:26.111Z,6.40
2023-01-22T09:16:52.549Z,6.85
2023-01-22T09:19:19.047Z,5.95
2023-01-22T09:21:45.510Z,6.57
2023-01-22T09:24:11.891Z,6.40
2023-01-22T09:26:38.725Z,6.28
2023-01-22T09:29:05.579Z,7.05
2023-01-22T09:31:32.812Z,6.28
2023-01-22T09:33:59.817Z,6.82
2023-01-22T09:36:26.154Z,7.20
2023-01-22T09:38:52.622Z,316.08
2023-01-22T09:41:19.047Z,183.75
2023-01-22T09:43:45.710Z,95.00
2023-01-22T09:46:12.320Z,84.78
2023-01-22T09:48:39.405Z,75.70
2023-01-22T09:51:05.804Z,69.07
2023-01-22T09:53:32.987Z,65.55
2023-01-22T09:55:59.830Z,65.97
2023-01-22T09:58:26.324Z,149.57
2023-01-22T10:00:52.901Z,180.77
2023-01-22T10:03:21.346Z,147.88
2023-01-22T10:05:49.421Z,136.32
2023-01-22T10:08:16.483Z,242.45
2023-01-22T10:10:43.916Z,274.55
2023-01-22T10:13:10.317Z,240.15
2023-01-22T10:15:36.856Z,222.38
2023-01-22T10:18:03.956Z,208.38
2023-01-22T10:20:31.136Z,190.35
2023-01-22T10:22:57.586Z,180.10
2023-01-22T10:25:23.961Z,167.60
2023-01-22T10:27:50.854Z,157.38
2023-01-22T10:30:17.802Z,148.75
2023-01-22T10:32:44.446Z,164.48
2023-01-22T10:35:11.239Z,221.35
2023-01-22T10:37:37.720Z,230.95
2023-01-22T10:40:04.332Z,227.38
2023-01-22T10:42:31.017Z,209.07
2023-01-22T10:44:57.792Z,194.32
2023-01-22T10:47:24.604Z,179.15
2023-01-22T10:49:51.207Z,157.00
2023-01-22T10:52:17.574Z,156.05
2023-01-22T10:54:44.295Z,146.93
2023-01-22T10:57:11.108Z,134.90
2023-01-22T10:59:37.755Z,127.28
2023-01-22T11:02:04.675Z,123.60
2023-01-22T11:04:31.321Z,244.15
2023-01-22T11:06:57.708Z,228.20
2023-01-22T11:09:26.452Z,208.80
2023-01-22T11:11:53.230Z,192.48
2023-01-22T11:14:19.551Z,158.50
2023-01-22T11:16:46.931Z,135.90
2023-01-22T11:19:14.075Z,115.65
2023-01-22T11:21:41.103Z,96.72
2023-01-22T11:24:07.944Z,113.85
2023-01-22T11:26:35.251Z,203.90
2023-01-22T11:29:02.316Z,178.63
2023-01-22T11:31:29.286Z,169.18
2023-01-22T11:33:56.261Z,154.38
2023-01-22T11:36:22.658Z,141.07
2023-01-22T11:38:49.602Z,132.68
2023-01-22T11:41:16.239Z,127.63
2023-01-22T11:43:42.606Z,123.18
2023-01-22T11:46:09.585Z,115.28
2023-01-22T11:48:36.331Z,152.98
2023-01-22T11:51:03.225Z,184.35
2023-01-22T11:53:29.658Z,201.32
2023-01-22T11:55:55.971Z,173.70
2023-01-22T11:58:22.616Z,160.15
2023-01-22T12:00:49.043Z,155.55
2023-01-22T12:03:15.701Z,262.20
2023-01-22T12:05:42.440Z,247.10
2023-01-22T12:08:09.341Z,226.35
2023-01-22T12:10:35.884Z,211.77
2023-01-22T12:13:02.653Z,192.65
2023-01-22T12:15:29.275Z,178.38
2023-01-22T12:17:55.923Z,170.43
2023-01-22T12:20:22.731Z,155.10
2023-01-22T12:22:49.108Z,123.38
2023-01-22T12:25:15.904Z,211.85
2023-01-22T12:27:43.294Z,220.25
2023-01-22T12:30:09.771Z,218.15
2023-01-22T12:32:36.623Z,204.98
2023-01-22T12:35:03.466Z,191.02
2023-01-22T12:37:30.239Z,177.57
2023-01-22T12:39:57.006Z,158.63
2023-01-22T12:42:23.548Z,154.57
2023-01-22T12:44:49.933Z,139.98
2023-01-22T12:47:17.098Z,134.10
2023-01-22T12:49:43.673Z,128.55
2023-01-22T12:52:10.364Z,124.20
2023-01-22T12:54:37.693Z,133.45
2023-01-22T12:57:04.116Z,155.55
2023-01-22T12:59:30.793Z,189.20
2023-01-22T13:01:57.644Z,240.50
2023-01-22T13:04:24.142Z,217.32
2023-01-22T13:06:50.857Z,199.05
2023-01-22T13:09:18.148Z,186.85
2023-01-22T13:11:45.242Z,161.57
2023-01-22T13:14:15.047Z,157.10
2023-01-22T13:16:41.974Z,234.75
2023-01-22T13:19:08.797Z,281.85
2023-01-22T13:21:35.542Z,245.43
2023-01-22T13:24:02.059Z,230.23
2023-01-22T13:26:28.462Z,208.60
2023-01-22T13:28:55.201Z,198.98
2023-01-22T13:31:22.083Z,191.60
2023-01-22T13:33:48.838Z,289.13
2023-01-22T13:36:15.296Z,314.80
2023-01-22T13:38:41.799Z,290.83
2023-01-22T13:41:08.178Z,271.50
2023-01-22T13:43:34.918Z,245.30
2023-01-22T13:46:01.698Z,239.10
2023-01-22T13:48:28.269Z,223.35
2023-01-22T13:50:54.994Z,208.57
2023-01-22T13:53:21.546Z,191.18
2023-01-22T13:55:48.101Z,184.93
2023-01-22T13:58:15.271Z,179.05
2023-01-22T14:00:42.335Z,167.85
2023-01-22T14:03:09.120Z,160.57
2023-01-22T14:05:35.986Z,155.57
2023-01-22T14:08:02.644Z,144.43
2023-01-22T14:10:29.119Z,133.55
2023-01-22T14:12:55.777Z,129.30
2023-01-22T14:15:22.507Z,125.10
2023-01-22T14:17:50.655Z,166.15
2023-01-22T14:20:17.870Z,205.52
2023-01-22T14:22:44.413Z,226.90
2023-01-22T14:25:11.000Z,197.48
2023-01-22T14:27:38.056Z,180.88
2023-01-22T14:30:04.496Z,162.48
2023-01-22T14:32:31.482Z,159.98
2023-01-22T14:34:58.262Z,145.90
2023-01-22T14:37:24.908Z,136.52
2023-01-22T14:39:51.678Z,134.38
2023-01-22T14:42:18.421Z,124.78
2023-01-22T14:44:45.621Z,116.30
2023-01-22T14:47:12.504Z,111.05
2023-01-22T14:49:39.276Z,106.57
2023-01-22T14:52:06.457Z,145.70
2023-01-22T14:54:32.961Z,190.75
2023-01-22T14:56:59.815Z,217.55
2023-01-22T14:59:26.939Z,187.60
2023-01-22T15:01:53.483Z,176.27
2023-01-22T15:04:20.254Z,167.30
2023-01-22T15:06:46.830Z,160.63
2023-01-22T15:09:13.627Z,149.73
2023-01-22T15:11:40.230Z,138.77
2023-01-22T15:14:07.061Z,179.73
2023-01-22T15:16:33.693Z,225.25
2023-01-22T15:19:00.111Z,279.63
2023-01-22T15:21:26.699Z,235.93
2023-01-22T15:23:53.682Z,223.32
2023-01-22T15:26:20.169Z,205.68
2023-01-22T15:28:46.786Z,195.30
2023-01-22T15:31:13.523Z,190.98
2023-01-22T15:33:40.108Z,172.73
2023-01-22T15:36:06.682Z,184.02
2023-01-22T15:38:33.169Z,219.40
2023-01-22T15:40:59.553Z,291.55
2023-01-22T15:43:26.054Z,307.02
2023-01-22T15:45:52.772Z,285.80
2023-01-22T15:48:19.741Z,270.65
2023-01-22T15:50:46.288Z,254.68
2023-01-22T15:53:12.889Z,315.20
2023-01-22T15:55:39.348Z,345.75
2023-01-22T15:58:05.887Z,347.58
2023-01-22T16:00:32.315Z,331.25
2023-01-22T16:02:59.364Z,318.02
2023-01-22T16:05:25.810Z,304.73
2023-01-22T16:07:52.725Z,294.55
2023-01-22T16:10:19.371Z,293.75
2023-01-22T16:12:46.173Z,281.10
2023-01-22T16:15:13.009Z,280.13
2023-01-22T16:17:39.858Z,270.48
2023-01-22T16:20:06.439Z,262.73
2023-01-22T16:22:33.294Z,256.83
2023-01-22T16:24:59.695Z,254.15
2023-01-22T16:27:26.162Z,249.63
2023-01-22T16:29:53.175Z,244.75
2023-01-22T16:32:19.892Z,237.75
2023-01-22T16:34:47.233Z,230.73
2023-01-22T16:37:13.624Z,227.68
2023-01-22T16:39:40.167Z,227.05
2023-01-22T16:42:06.813Z,223.00
2023-01-22T16:44:33.849Z,219.60
2023-01-22T16:47:00.305Z,210.45
2023-01-22T16:49:26.827Z,207.93
2023-01-22T16:51:53.295Z,203.93
2023-01-22T16:54:20.278Z,198.23
2023-01-22T16:56:46.603Z,190.95
2023-01-22T16:59:13.689Z,190.93
2023-01-22T17:01:41.395Z,178.40
2023-01-22T17:04:08.056Z,182.13
2023-01-22T17:06:34.989Z,176.55
2023-01-22T17:09:01.571Z,172.25
2023-01-22T17:11:28.076Z,166.55
2023-01-22T17:13:54.910Z,163.95
2023-01-22T17:16:21.810Z,159.10
2023-01-22T17:18:48.430Z,157.18
2023-01-22T17:21:15.130Z,153.63
2023-01-22T17:23:42.238Z,153.10
2023-01-22T17:26:08.632Z,146.85
2023-01-22T17:28:35.030Z,146.77
2023-01-22T17:31:01.561Z,140.48
2023-01-22T17:33:28.434Z,135.57
2023-01-22T17:35:55.351Z,135.30
2023-01-22T17:38:22.211Z,133.50
2023-01-22T17:40:48.643Z,129.90
2023-01-22T17:43:15.414Z,124.50
2023-01-22T17:45:42.529Z,124.97
2023-01-22T17:48:09.817Z,123.00
2023-01-22T17:50:36.560Z,120.05
2023-01-22T17:53:03.402Z,113.82
2023-01-22T17:55:29.927Z,116.18
2023-01-22T17:57:56.455Z,113.50
2023-01-22T18:00:23.249Z,110.30
2023-01-22T18:02:50.373Z,108.20
2023-01-22T18:05:17.102Z,108.03
2023-01-22T18:07:43.749Z,103.90
2023-01-22T18:10:10.713Z,103.40
2023-01-22T18:12:37.325Z,104.95
2023-01-22T18:15:03.913Z,103.15
2023-01-22T18:17:30.370Z,95.40
2023-01-22T18:19:57.361Z,96.53
2023-01-22T18:22:24.536Z,94.65
2023-01-22T18:24:50.989Z,93.90
2023-01-22T18:27:17.537Z,92.60
2023-01-22T18:29:43.985Z,89.30
2023-01-22T18:32:10.886Z,90.03
2023-01-22T18:34:37.351Z,85.35
2023-01-22T18:37:03.863Z,84.20
2023-01-22T18:39:30.271Z,82.72
2023-01-22T18:41:57.157Z,82.45
2023-01-22T18:44:24.291Z,80.70
2023-01-22T18:46:51.088Z,75.13
2023-01-22T18:49:17.755Z,76.18
2023-01-22T18:51:44.736Z,75.72
2023-01-22T18:54:11.594Z,72.57
2023-01-22T18:56:38.290Z,71.90
2023-01-22T18:59:04.836Z,71.80
2023-01-22T19:01:31.342Z,68.03
2023-01-22T19:03:57.795Z,66.40
2023-01-22T19:06:24.442Z,65.75
2023-01-22T19:08:51.575Z,66.88
2023-01-22T19:11:18.040Z,63.85
2023-01-22T19:13:44.650Z,63.00
2023-01-22T19:16:11.690Z,63.38
2023-01-22T19:18:38.415Z,60.28
2023-01-22T19:21:05.374Z,61.70
2023-01-22T19:23:32.037Z,58.45
2023-01-22T19:25:58.775Z,59.28
2023-01-22T19:28:25.687Z,57.83
2023-01-22T19:30:52.342Z,54.75
2023-01-22T19:33:18.763Z,57.00
2023-01-22T19:35:45.103Z,55.08
2023-01-22T19:38:11.646Z,54.25
2023-01-22T19:40:38.137Z,51.00
2023-01-22T19:43:05.223Z,51.78
2023-01-22T19:45:31.637Z,50.85
2023-01-22T19:47:58.043Z,50.25
2023-01-22T19:50:24.725Z,48.90
2023-01-22T19:52:51.507Z,47.50
2023-01-22T19:55:18.200Z,47.17
2023-01-22T19:57:44.822Z,48.58
2023-01-22T20:00:11.442Z,44.75
2023-01-22T20:02:38.125Z,45.65
2023-01-22T20:05:05.262Z,45.25
2023-01-22T20:07:32.308Z,44.95
2023-01-22T20:09:58.739Z,43.70
2023-01-22T20:12:25.306Z,44.38
2023-01-22T20:14:52.138Z,42.55
2023-01-22T20:17:18.594Z,42.00
2023-01-22T20:19:44.972Z,41.75
2023-01-22T20:22:11.560Z,39.95
2023-01-22T20:24:38.285Z,42.35
2023-01-22T20:27:05.144Z,40.13
2023-01-22T20:29:31.504Z,39.05
2023-01-22T20:31:58.225Z,38.55
2023-01-22T20:34:25.990Z,39.58
2023-01-22T20:36:53.035Z,36.63
2023-01-22T20:39:19.524Z,38.65
2023-01-22T20:41:45.927Z,36.35
2023-01-22T20:44:12.655Z,35.35
2023-01-22T20:46:38.978Z,36.95
2023-01-22T20:49:05.393Z,36.65
2023-01-22T20:51:32.214Z,35.88
2023-01-22T20:53:59.108Z,34.97
2023-01-22T20:56:25.553Z,34.92
2023-01-22T20:58:52.761Z,33.88
2023-01-22T21:01:19.289Z,33.47
2023-01-22T21:03:45.687Z,31.63
2023-01-22T21:06:14.005Z,33.85
2023-01-22T21:08:41.236Z,30.58
2023-01-22T21:11:07.824Z,32.65
2023-01-22T21:13:34.650Z,30.77
2023-01-22T21:16:01.159Z,31.23
2023-01-22T21:18:27.576Z,31.15
2023-01-22T21:20:54.377Z,30.25
2023-01-22T21:23:21.289Z,29.58
2023-01-22T21:25:47.826Z,28.80
2023-01-22T21:28:14.399Z,29.00
2023-01-22T21:30:41.058Z,30.10
2023-01-22T21:33:07.751Z,28.40
2023-01-22T21:35:34.963Z,28.00
2023-01-22T21:38:01.462Z,28.23
2023-01-22T21:40:28.308Z,26.75
2023-01-22T21:42:55.406Z,26.60
2023-01-22T21:45:22.191Z,25.98
2023-01-22T21:47:48.848Z,26.55
2023-01-22T21:50:16.003Z,26.48
2023-01-22T21:52:44.926Z,25.33
2023-01-22T21:55:12.161Z,25.77
2023-01-22T21:57:38.953Z,25.27
2023-01-22T22:00:05.889Z,25.40
2023-01-22T22:02:33.077Z,24.50
2023-01-22T22:04:59.780Z,23.67
2023-01-22T22:07:26.397Z,25.15
2023-01-22T22:09:53.162Z,23.55
2023-01-22T22:12:19.533Z,24.13
2023-01-22T22:14:46.482Z,23.20
2023-01-22T22:17:13.105Z,23.98
2023-01-22T22:19:39.573Z,23.67
2023-01-22T22:22:06.375Z,22.80
2023-01-22T22:24:33.228Z,22.55
2023-01-22T22:27:00.243Z,22.35
2023-01-22T22:29:27.424Z,22.20
2023-01-22T22:31:54.771Z,22.55
2023-01-22T22:34:21.494Z,23.17
2023-01-22T22:36:48.218Z,22.90
2023-01-22T22:39:14.744Z,21.80
2023-01-22T22:41:41.249Z,22.27
2023-01-22T22:44:07.789Z,20.75
2023-01-22T22:46:34.346Z,21.77
2023-01-22T22:49:01.264Z,21.15
2023-01-22T22:51:27.724Z,20.50
2023-01-22T22:53:54.844Z,20.67
2023-01-22T22:56:21.817Z,21.65
2023-01-22T22:58:48.724Z,20.13
2023-01-22T23:01:15.398Z,19.90
2023-01-22T23:03:41.972Z,19.67
2023-01-22T23:06:08.520Z,19.23
2023-01-22T23:08:35.246Z,20.13
2023-01-22T23:11:02.066Z,19.40
2023-01-22T23:13:28.537Z,19.02
2023-01-22T23:15:55.731Z,19.60
2023-01-22T23:18:22.612Z,19.58
2023-01-22T23:20:49.149Z,19.33
2023-01-22T23:23:16.112Z,18.77
2023-01-22T23:25:42.771Z,18.88
2023-01-22T23:28:09.254Z,19.67
2023-01-22T23:30:36.023Z,19.60
2023-01-22T23:33:02.779Z,17.75
2023-01-22T23:35:29.230Z,19.40
2023-01-22T23:37:55.669Z,17.70
2023-01-22T23:40:22.271Z,19.05
2023-01-22T23:42:48.952Z,17.52
2023-01-22T23:45:15.734Z,16.77
2023-01-22T23:47:42.609Z,18.58
2023-01-22T23:50:08.952Z,17.95
2023-01-22T23:52:35.703Z,17.23
2023-01-22T23:55:02.533Z,17.60
2023-01-22T23:57:28.859Z,17.05
2023-01-22T23:59:55.842Z,17.33
